sensor_id;sensor_type;location;lat;lon;timestamp;P1;durP1;ratioP1;P2;durP2;ratioP2
21188;SDS011;39071;52.420;20.896;2023-04-06T00:00:55;8.27;;;3.60;;
21188;SDS011;39071;52.420;20.896;2023-04-06T00:03:20;8.93;;;3.17;;
21188;SDS011;39071;52.420;20.896;2023-04-06T00:05:46;5.23;;;2.60;;
21188;SDS011;39071;52.420;20.896;2023-04-06T00:08:13;5.87;;;2.43;;
21188;SDS011;39071;52.420;20.896;2023-04-06T00:10:38;6.30;;;2.30;;
21188;SDS011;39071;52.420;20.896;2023-04-06T00:13:05;6.57;;;2.23;;
21188;SDS011;39071;52.420;20.896;2023-04-06T00:15:31;4.40;;;1.90;;
21188;SDS011;39071;52.420;20.896;2023-04-06T00:17:57;3.70;;;2.30;;
21188;SDS011;39071;52.420;20.896;2023-04-06T00:20:23;6.33;;;2.63;;
21188;SDS011;39071;52.420;20.896;2023-04-06T00:22:49;4.53;;;1.70;;
21188;SDS011;39071;52.420;20.896;2023-04-06T00:25:15;4.40;;;1.90;;
21188;SDS011;39071;52.420;20.896;2023-04-06T00:27:41;6.20;;;1.60;;
21188;SDS011;39071;52.420;20.896;2023-04-06T00:30:07;4.03;;;1.67;;
21188;SDS011;39071;52.420;20.896;2023-04-06T00:32:34;5.07;;;2.20;;
21188;SDS011;39071;52.420;20.896;2023-04-06T00:35:04;7.87;;;2.13;;
21188;SDS011;39071;52.420;20.896;2023-04-06T00:37:30;2.83;;;1.43;;
21188;SDS011;39071;52.420;20.896;2023-04-06T00:39:56;2.87;;;2.20;;
21188;SDS011;39071;52.420;20.896;2023-04-06T00:42:22;11.93;;;2.03;;
21188;SDS011;39071;52.420;20.896;2023-04-06T00:44:52;11.57;;;2.37;;
21188;SDS011;39071;52.420;20.896;2023-04-06T00:47:18;4.57;;;2.90;;
21188;SDS011;39071;52.420;20.896;2023-04-06T00:49:45;7.10;;;2.00;;
21188;SDS011;39071;52.420;20.896;2023-04-06T00:52:10;3.43;;;1.83;;
21188;SDS011;39071;52.420;20.896;2023-04-06T00:54:36;4.20;;;1.93;;
21188;SDS011;39071;52.420;20.896;2023-04-06T00:57:02;6.10;;;2.17;;
21188;SDS011;39071;52.420;20.896;2023-04-06T00:59:27;5.73;;;2.00;;
21188;SDS011;39071;52.420;20.896;2023-04-06T01:01:54;2.67;;;2.13;;
21188;SDS011;39071;52.420;20.896;2023-04-06T01:04:20;7.33;;;1.87;;
21188;SDS011;39071;52.420;20.896;2023-04-06T01:06:48;5.53;;;1.90;;
21188;SDS011;39071;52.420;20.896;2023-04-06T01:09:14;4.60;;;2.87;;
21188;SDS011;39071;52.420;20.896;2023-04-06T01:11:40;4.87;;;2.10;;
21188;SDS011;39071;52.420;20.896;2023-04-06T01:14:06;2.17;;;1.73;;
21188;SDS011;39071;52.420;20.896;2023-04-06T01:16:32;5.33;;;1.70;;
21188;SDS011;39071;52.420;20.896;2023-04-06T01:18:58;3.30;;;1.60;;
21188;SDS011;39071;52.420;20.896;2023-04-06T01:21:24;3.17;;;1.87;;
21188;SDS011;39071;52.420;20.896;2023-04-06T01:23:50;4.17;;;2.33;;
21188;SDS011;39071;52.420;20.896;2023-04-06T01:26:16;10.80;;;2.93;;
21188;SDS011;39071;52.420;20.896;2023-04-06T01:28:42;3.27;;;1.73;;
21188;SDS011;39071;52.420;20.896;2023-04-06T01:31:09;13.03;;;2.63;;
21188;SDS011;39071;52.420;20.896;2023-04-06T01:33:35;4.83;;;2.40;;
21188;SDS011;39071;52.420;20.896;2023-04-06T01:36:01;7.10;;;2.83;;
21188;SDS011;39071;52.420;20.896;2023-04-06T01:38:28;7.30;;;1.90;;
21188;SDS011;39071;52.420;20.896;2023-04-06T01:40:54;4.43;;;1.87;;
21188;SDS011;39071;52.420;20.896;2023-04-06T01:43:20;3.13;;;1.53;;
21188;SDS011;39071;52.420;20.896;2023-04-06T01:45:46;7.90;;;3.13;;
21188;SDS011;39071;52.420;20.896;2023-04-06T01:48:12;9.40;;;2.43;;
21188;SDS011;39071;52.420;20.896;2023-04-06T01:50:38;6.30;;;2.53;;
21188;SDS011;39071;52.420;20.896;2023-04-06T01:53:04;5.73;;;2.40;;
21188;SDS011;39071;52.420;20.896;2023-04-06T01:55:29;8.43;;;2.30;;
21188;SDS011;39071;52.420;20.896;2023-04-06T01:57:55;5.23;;;1.93;;
21188;SDS011;39071;52.420;20.896;2023-04-06T02:00:21;9.97;;;3.03;;
21188;SDS011;39071;52.420;20.896;2023-04-06T02:02:47;8.47;;;3.63;;
21188;SDS011;39071;52.420;20.896;2023-04-06T02:05:13;12.80;;;2.73;;
21188;SDS011;39071;52.420;20.896;2023-04-06T02:07:38;5.87;;;2.40;;
21188;SDS011;39071;52.420;20.896;2023-04-06T02:10:04;3.83;;;2.80;;
21188;SDS011;39071;52.420;20.896;2023-04-06T02:12:39;5.70;;;2.57;;
21188;SDS011;39071;52.420;20.896;2023-04-06T02:15:04;4.50;;;2.50;;
21188;SDS011;39071;52.420;20.896;2023-04-06T02:17:30;5.03;;;2.80;;
21188;SDS011;39071;52.420;20.896;2023-04-06T02:19:56;8.80;;;3.97;;
21188;SDS011;39071;52.420;20.896;2023-04-06T02:22:22;4.50;;;2.30;;
21188;SDS011;39071;52.420;20.896;2023-04-06T02:24:48;8.17;;;1.97;;
21188;SDS011;39071;52.420;20.896;2023-04-06T02:27:14;6.33;;;2.70;;
21188;SDS011;39071;52.420;20.896;2023-04-06T02:29:40;5.20;;;1.90;;
21188;SDS011;39071;52.420;20.896;2023-04-06T02:32:06;3.10;;;1.70;;
21188;SDS011;39071;52.420;20.896;2023-04-06T02:34:32;3.00;;;1.63;;
21188;SDS011;39071;52.420;20.896;2023-04-06T02:36:57;6.97;;;3.37;;
21188;SDS011;39071;52.420;20.896;2023-04-06T02:39:23;5.30;;;2.27;;
21188;SDS011;39071;52.420;20.896;2023-04-06T02:41:49;4.30;;;2.43;;
21188;SDS011;39071;52.420;20.896;2023-04-06T02:44:15;4.17;;;2.40;;
21188;SDS011;39071;52.420;20.896;2023-04-06T02:46:40;3.00;;;2.00;;
21188;SDS011;39071;52.420;20.896;2023-04-06T02:49:06;8.53;;;2.70;;
21188;SDS011;39071;52.420;20.896;2023-04-06T02:51:32;8.23;;;2.47;;
21188;SDS011;39071;52.420;20.896;2023-04-06T02:53:58;5.90;;;2.70;;
21188;SDS011;39071;52.420;20.896;2023-04-06T02:56:24;6.73;;;3.07;;
21188;SDS011;39071;52.420;20.896;2023-04-06T02:58:51;7.60;;;2.00;;
21188;SDS011;39071;52.420;20.896;2023-04-06T03:01:17;6.43;;;3.03;;
21188;SDS011;39071;52.420;20.896;2023-04-06T03:03:43;5.50;;;2.17;;
21188;SDS011;39071;52.420;20.896;2023-04-06T03:06:08;6.07;;;2.50;;
21188;SDS011;39071;52.420;20.896;2023-04-06T03:08:34;6.97;;;2.30;;
21188;SDS011;39071;52.420;20.896;2023-04-06T03:11:00;6.17;;;2.50;;
21188;SDS011;39071;52.420;20.896;2023-04-06T03:13:26;9.80;;;2.10;;
21188;SDS011;39071;52.420;20.896;2023-04-06T03:15:51;4.77;;;1.87;;
21188;SDS011;39071;52.420;20.896;2023-04-06T03:18:20;3.83;;;2.60;;
21188;SDS011;39071;52.420;20.896;2023-04-06T03:20:50;10.07;;;2.53;;
21188;SDS011;39071;52.420;20.896;2023-04-06T03:23:16;6.87;;;2.03;;
21188;SDS011;39071;52.420;20.896;2023-04-06T03:25:42;6.97;;;2.37;;
21188;SDS011;39071;52.420;20.896;2023-04-06T03:28:07;9.20;;;2.57;;
21188;SDS011;39071;52.420;20.896;2023-04-06T03:30:33;5.47;;;2.93;;
21188;SDS011;39071;52.420;20.896;2023-04-06T03:32:59;5.23;;;1.93;;
21188;SDS011;39071;52.420;20.896;2023-04-06T03:35:25;7.00;;;2.53;;
21188;SDS011;39071;52.420;20.896;2023-04-06T03:37:51;4.40;;;2.87;;
21188;SDS011;39071;52.420;20.896;2023-04-06T03:40:17;7.57;;;2.97;;
21188;SDS011;39071;52.420;20.896;2023-04-06T03:42:42;5.23;;;2.53;;
21188;SDS011;39071;52.420;20.896;2023-04-06T03:45:08;10.30;;;3.63;;
21188;SDS011;39071;52.420;20.896;2023-04-06T03:47:34;7.67;;;3.20;;
21188;SDS011;39071;52.420;20.896;2023-04-06T03:50:00;5.07;;;2.97;;
21188;SDS011;39071;52.420;20.896;2023-04-06T03:52:26;4.03;;;2.57;;
21188;SDS011;39071;52.420;20.896;2023-04-06T03:54:52;8.57;;;3.40;;
21188;SDS011;39071;52.420;20.896;2023-04-06T03:57:18;6.00;;;2.60;;
21188;SDS011;39071;52.420;20.896;2023-04-06T03:59:43;7.87;;;2.00;;
21188;SDS011;39071;52.420;20.896;2023-04-06T04:02:09;9.37;;;3.30;;
21188;SDS011;39071;52.420;20.896;2023-04-06T04:04:35;5.37;;;2.87;;
21188;SDS011;39071;52.420;20.896;2023-04-06T04:07:00;11.60;;;3.37;;
21188;SDS011;39071;52.420;20.896;2023-04-06T04:09:26;6.03;;;1.83;;
21188;SDS011;39071;52.420;20.896;2023-04-06T04:11:52;3.97;;;2.40;;
21188;SDS011;39071;52.420;20.896;2023-04-06T04:14:17;8.93;;;2.90;;
21188;SDS011;39071;52.420;20.896;2023-04-06T04:16:43;6.50;;;3.10;;
21188;SDS011;39071;52.420;20.896;2023-04-06T04:19:09;9.60;;;2.47;;
21188;SDS011;39071;52.420;20.896;2023-04-06T04:21:41;4.07;;;2.63;;
21188;SDS011;39071;52.420;20.896;2023-04-06T04:24:09;7.40;;;2.63;;
21188;SDS011;39071;52.420;20.896;2023-04-06T04:26:35;8.60;;;2.00;;
21188;SDS011;39071;52.420;20.896;2023-04-06T04:29:02;5.60;;;2.37;;
21188;SDS011;39071;52.420;20.896;2023-04-06T04:31:28;2.67;;;1.83;;
21188;SDS011;39071;52.420;20.896;2023-04-06T04:33:53;4.07;;;2.57;;
21188;SDS011;39071;52.420;20.896;2023-04-06T04:36:19;6.03;;;2.03;;
21188;SDS011;39071;52.420;20.896;2023-04-06T04:38:45;3.63;;;2.07;;
21188;SDS011;39071;52.420;20.896;2023-04-06T04:41:10;8.03;;;2.20;;
21188;SDS011;39071;52.420;20.896;2023-04-06T04:43:36;5.40;;;2.13;;
21188;SDS011;39071;52.420;20.896;2023-04-06T04:46:02;3.33;;;1.90;;
21188;SDS011;39071;52.420;20.896;2023-04-06T04:48:29;3.20;;;1.73;;
21188;SDS011;39071;52.420;20.896;2023-04-06T04:50:55;2.40;;;1.53;;
21188;SDS011;39071;52.420;20.896;2023-04-06T04:53:21;11.10;;;4.67;;
21188;SDS011;39071;52.420;20.896;2023-04-06T04:55:47;4.80;;;1.73;;
21188;SDS011;39071;52.420;20.896;2023-04-06T04:58:13;6.53;;;2.17;;
21188;SDS011;39071;52.420;20.896;2023-04-06T05:00:45;3.33;;;1.63;;
21188;SDS011;39071;52.420;20.896;2023-04-06T05:03:21;2.53;;;1.63;;
21188;SDS011;39071;52.420;20.896;2023-04-06T05:05:49;4.60;;;2.43;;
21188;SDS011;39071;52.420;20.896;2023-04-06T05:08:15;3.93;;;1.90;;
21188;SDS011;39071;52.420;20.896;2023-04-06T05:10:41;4.73;;;2.20;;
21188;SDS011;39071;52.420;20.896;2023-04-06T05:13:07;3.10;;;2.27;;
21188;SDS011;39071;52.420;20.896;2023-04-06T05:15:32;3.03;;;2.13;;
21188;SDS011;39071;52.420;20.896;2023-04-06T05:18:03;11.37;;;2.47;;
21188;SDS011;39071;52.420;20.896;2023-04-06T05:20:29;4.03;;;1.10;;
21188;SDS011;39071;52.420;20.896;2023-04-06T05:22:55;8.63;;;2.53;;
21188;SDS011;39071;52.420;20.896;2023-04-06T05:25:21;2.13;;;1.43;;
21188;SDS011;39071;52.420;20.896;2023-04-06T05:27:47;2.37;;;1.27;;
21188;SDS011;39071;52.420;20.896;2023-04-06T05:30:14;4.80;;;1.77;;
21188;SDS011;39071;52.420;20.896;2023-04-06T05:32:40;2.10;;;1.10;;
21188;SDS011;39071;52.420;20.896;2023-04-06T05:35:07;1.53;;;1.03;;
21188;SDS011;39071;52.420;20.896;2023-04-06T05:37:33;2.50;;;1.10;;
21188;SDS011;39071;52.420;20.896;2023-04-06T05:39:59;1.07;;;0.97;;
21188;SDS011;39071;52.420;20.896;2023-04-06T05:42:25;3.00;;;0.90;;
21188;SDS011;39071;52.420;20.896;2023-04-06T05:44:52;3.33;;;1.27;;
21188;SDS011;39071;52.420;20.896;2023-04-06T05:47:18;3.50;;;1.23;;
21188;SDS011;39071;52.420;20.896;2023-04-06T05:49:43;3.60;;;1.43;;
21188;SDS011;39071;52.420;20.896;2023-04-06T05:52:09;3.00;;;1.83;;
21188;SDS011;39071;52.420;20.896;2023-04-06T05:54:38;2.17;;;2.00;;
21188;SDS011;39071;52.420;20.896;2023-04-06T05:57:04;4.83;;;1.40;;
21188;SDS011;39071;52.420;20.896;2023-04-06T05:59:30;1.90;;;0.83;;
21188;SDS011;39071;52.420;20.896;2023-04-06T06:01:56;2.03;;;1.50;;
21188;SDS011;39071;52.420;20.896;2023-04-06T06:04:22;2.60;;;1.27;;
21188;SDS011;39071;52.420;20.896;2023-04-06T06:06:47;3.63;;;1.57;;
21188;SDS011;39071;52.420;20.896;2023-04-06T06:09:13;2.90;;;1.47;;
21188;SDS011;39071;52.420;20.896;2023-04-06T06:11:39;3.37;;;1.43;;
21188;SDS011;39071;52.420;20.896;2023-04-06T06:14:05;2.13;;;1.23;;
21188;SDS011;39071;52.420;20.896;2023-04-06T06:16:31;2.17;;;1.40;;
21188;SDS011;39071;52.420;20.896;2023-04-06T06:18:57;2.07;;;1.50;;
21188;SDS011;39071;52.420;20.896;2023-04-06T06:21:23;2.50;;;1.50;;
21188;SDS011;39071;52.420;20.896;2023-04-06T06:23:49;3.10;;;1.47;;
21188;SDS011;39071;52.420;20.896;2023-04-06T06:26:15;2.90;;;1.67;;
21188;SDS011;39071;52.420;20.896;2023-04-06T06:28:41;4.03;;;1.53;;
21188;SDS011;39071;52.420;20.896;2023-04-06T06:31:07;4.40;;;1.93;;
21188;SDS011;39071;52.420;20.896;2023-04-06T06:33:33;5.97;;;1.60;;
21188;SDS011;39071;52.420;20.896;2023-04-06T06:35:58;3.20;;;1.77;;
21188;SDS011;39071;52.420;20.896;2023-04-06T06:38:25;3.00;;;1.20;;
21188;SDS011;39071;52.420;20.896;2023-04-06T06:40:50;3.70;;;1.67;;
21188;SDS011;39071;52.420;20.896;2023-04-06T06:43:17;4.10;;;1.60;;
21188;SDS011;39071;52.420;20.896;2023-04-06T06:45:42;4.50;;;1.57;;
21188;SDS011;39071;52.420;20.896;2023-04-06T06:48:09;3.67;;;1.97;;
21188;SDS011;39071;52.420;20.896;2023-04-06T06:50:35;1.67;;;1.10;;
21188;SDS011;39071;52.420;20.896;2023-04-06T06:53:01;1.10;;;0.93;;
21188;SDS011;39071;52.420;20.896;2023-04-06T06:55:27;3.83;;;1.43;;
21188;SDS011;39071;52.420;20.896;2023-04-06T06:57:53;2.23;;;1.33;;
21188;SDS011;39071;52.420;20.896;2023-04-06T07:00:19;0.90;;;0.80;;
21188;SDS011;39071;52.420;20.896;2023-04-06T07:02:48;1.23;;;1.10;;
21188;SDS011;39071;52.420;20.896;2023-04-06T07:05:15;0.90;;;0.80;;
21188;SDS011;39071;52.420;20.896;2023-04-06T07:07:40;6.40;;;1.67;;
21188;SDS011;39071;52.420;20.896;2023-04-06T07:10:06;1.30;;;0.87;;
21188;SDS011;39071;52.420;20.896;2023-04-06T07:12:33;2.40;;;0.70;;
21188;SDS011;39071;52.420;20.896;2023-04-06T07:14:59;3.43;;;1.10;;
21188;SDS011;39071;52.420;20.896;2023-04-06T07:17:24;1.77;;;1.30;;
21188;SDS011;39071;52.420;20.896;2023-04-06T07:19:50;1.07;;;0.57;;
21188;SDS011;39071;52.420;20.896;2023-04-06T07:22:16;2.20;;;1.07;;
21188;SDS011;39071;52.420;20.896;2023-04-06T07:24:41;2.00;;;1.27;;
21188;SDS011;39071;52.420;20.896;2023-04-06T07:27:07;3.23;;;1.47;;
21188;SDS011;39071;52.420;20.896;2023-04-06T07:29:33;3.47;;;0.83;;
21188;SDS011;39071;52.420;20.896;2023-04-06T07:31:59;0.63;;;0.43;;
21188;SDS011;39071;52.420;20.896;2023-04-06T07:34:24;1.63;;;0.80;;
21188;SDS011;39071;52.420;20.896;2023-04-06T07:36:50;1.67;;;1.00;;
21188;SDS011;39071;52.420;20.896;2023-04-06T07:39:17;1.90;;;0.77;;
21188;SDS011;39071;52.420;20.896;2023-04-06T07:41:43;2.50;;;0.87;;
21188;SDS011;39071;52.420;20.896;2023-04-06T07:44:09;1.80;;;1.10;;
21188;SDS011;39071;52.420;20.896;2023-04-06T07:46:35;2.27;;;1.13;;
21188;SDS011;39071;52.420;20.896;2023-04-06T07:49:01;1.93;;;0.80;;
21188;SDS011;39071;52.420;20.896;2023-04-06T07:51:27;3.13;;;1.03;;
21188;SDS011;39071;52.420;20.896;2023-04-06T07:53:53;2.93;;;0.70;;
21188;SDS011;39071;52.420;20.896;2023-04-06T07:56:18;1.10;;;0.63;;
21188;SDS011;39071;52.420;20.896;2023-04-06T07:58:46;3.40;;;1.23;;
21188;SDS011;39071;52.420;20.896;2023-04-06T08:01:11;3.13;;;1.77;;
21188;SDS011;39071;52.420;20.896;2023-04-06T08:03:37;1.10;;;1.00;;
21188;SDS011;39071;52.420;20.896;2023-04-06T08:06:03;1.30;;;0.93;;
21188;SDS011;39071;52.420;20.896;2023-04-06T08:08:29;1.83;;;0.67;;
21188;SDS011;39071;52.420;20.896;2023-04-06T08:10:55;1.73;;;1.10;;
21188;SDS011;39071;52.420;20.896;2023-04-06T08:13:22;3.63;;;0.97;;
21188;SDS011;39071;52.420;20.896;2023-04-06T08:15:47;1.73;;;1.23;;
21188;SDS011;39071;52.420;20.896;2023-04-06T08:18:13;1.07;;;0.63;;
21188;SDS011;39071;52.420;20.896;2023-04-06T08:20:39;2.13;;;0.80;;
21188;SDS011;39071;52.420;20.896;2023-04-06T08:23:05;1.80;;;0.70;;
21188;SDS011;39071;52.420;20.896;2023-04-06T08:25:33;3.20;;;1.10;;
21188;SDS011;39071;52.420;20.896;2023-04-06T08:28:00;2.50;;;1.33;;
21188;SDS011;39071;52.420;20.896;2023-04-06T08:30:26;1.83;;;0.90;;
21188;SDS011;39071;52.420;20.896;2023-04-06T08:32:52;3.20;;;1.57;;
21188;SDS011;39071;52.420;20.896;2023-04-06T08:35:18;2.03;;;0.80;;
21188;SDS011;39071;52.420;20.896;2023-04-06T08:37:44;1.80;;;0.90;;
21188;SDS011;39071;52.420;20.896;2023-04-06T08:40:10;10.33;;;1.00;;
21188;SDS011;39071;52.420;20.896;2023-04-06T08:42:39;5.37;;;0.93;;
21188;SDS011;39071;52.420;20.896;2023-04-06T08:45:08;2.60;;;0.90;;
21188;SDS011;39071;52.420;20.896;2023-04-06T08:47:35;1.23;;;0.77;;
21188;SDS011;39071;52.420;20.896;2023-04-06T08:50:05;3.50;;;0.80;;
21188;SDS011;39071;52.420;20.896;2023-04-06T08:52:32;5.63;;;1.27;;
21188;SDS011;39071;52.420;20.896;2023-04-06T08:54:59;3.03;;;1.00;;
21188;SDS011;39071;52.420;20.896;2023-04-06T08:57:25;4.87;;;1.30;;
21188;SDS011;39071;52.420;20.896;2023-04-06T08:59:52;0.90;;;0.73;;
21188;SDS011;39071;52.420;20.896;2023-04-06T09:02:19;2.57;;;1.10;;
21188;SDS011;39071;52.420;20.896;2023-04-06T09:04:47;2.90;;;0.60;;
21188;SDS011;39071;52.420;20.896;2023-04-06T09:07:15;2.13;;;0.70;;
21188;SDS011;39071;52.420;20.896;2023-04-06T09:09:41;1.00;;;0.90;;
21188;SDS011;39071;52.420;20.896;2023-04-06T09:12:28;2.83;;;1.20;;
21188;SDS011;39071;52.420;20.896;2023-04-06T09:14:55;3.53;;;2.23;;
21188;SDS011;39071;52.420;20.896;2023-04-06T09:17:26;4.43;;;1.23;;
21188;SDS011;39071;52.420;20.896;2023-04-06T09:19:53;3.53;;;0.90;;
21188;SDS011;39071;52.420;20.896;2023-04-06T09:22:19;4.93;;;1.13;;
21188;SDS011;39071;52.420;20.896;2023-04-06T09:24:46;2.43;;;1.60;;
21188;SDS011;39071;52.420;20.896;2023-04-06T09:27:14;3.40;;;0.73;;
21188;SDS011;39071;52.420;20.896;2023-04-06T09:29:40;1.07;;;0.53;;
21188;SDS011;39071;52.420;20.896;2023-04-06T09:32:07;3.97;;;0.70;;
21188;SDS011;39071;52.420;20.896;2023-04-06T09:34:41;1.30;;;1.07;;
21188;SDS011;39071;52.420;20.896;2023-04-06T09:37:14;2.30;;;1.30;;
21188;SDS011;39071;52.420;20.896;2023-04-06T09:39:44;1.90;;;0.90;;
21188;SDS011;39071;52.420;20.896;2023-04-06T09:42:11;1.00;;;0.90;;
21188;SDS011;39071;52.420;20.896;2023-04-06T09:44:50;1.93;;;0.90;;
21188;SDS011;39071;52.420;20.896;2023-04-06T09:47:16;3.30;;;1.00;;
21188;SDS011;39071;52.420;20.896;2023-04-06T09:49:43;2.47;;;0.90;;
21188;SDS011;39071;52.420;20.896;2023-04-06T09:52:10;2.03;;;1.23;;
21188;SDS011;39071;52.420;20.896;2023-04-06T09:54:37;5.93;;;1.07;;
21188;SDS011;39071;52.420;20.896;2023-04-06T09:59:55;1.30;;;0.73;;
21188;SDS011;39071;52.420;20.896;2023-04-06T10:05:57;1.53;;;0.70;;
21188;SDS011;39071;52.420;20.896;2023-04-06T10:08:29;1.43;;;0.73;;
21188;SDS011;39071;52.420;20.896;2023-04-06T10:10:58;2.13;;;1.00;;
21188;SDS011;39071;52.420;20.896;2023-04-06T10:13:25;9.47;;;2.03;;
21188;SDS011;39071;52.420;20.896;2023-04-06T10:15:51;2.10;;;1.47;;
21188;SDS011;39071;52.420;20.896;2023-04-06T10:18:17;1.77;;;1.53;;
21188;SDS011;39071;52.420;20.896;2023-04-06T10:20:49;1.43;;;1.23;;
21188;SDS011;39071;52.420;20.896;2023-04-06T10:23:41;1.63;;;0.93;;
21188;SDS011;39071;52.420;20.896;2023-04-06T10:26:14;2.00;;;1.20;;
21188;SDS011;39071;52.420;20.896;2023-04-06T10:28:42;1.23;;;0.90;;
21188;SDS011;39071;52.420;20.896;2023-04-06T10:31:09;2.50;;;1.40;;
21188;SDS011;39071;52.420;20.896;2023-04-06T10:33:35;2.30;;;1.10;;
21188;SDS011;39071;52.420;20.896;2023-04-06T10:38:40;1.67;;;1.10;;
21188;SDS011;39071;52.420;20.896;2023-04-06T10:41:07;2.53;;;1.63;;
21188;SDS011;39071;52.420;20.896;2023-04-06T10:43:35;1.40;;;0.97;;
21188;SDS011;39071;52.420;20.896;2023-04-06T10:46:02;4.13;;;1.33;;
21188;SDS011;39071;52.420;20.896;2023-04-06T10:48:41;1.40;;;0.90;;
21188;SDS011;39071;52.420;20.896;2023-04-06T10:51:15;2.67;;;1.30;;
21188;SDS011;39071;52.420;20.896;2023-04-06T10:53:43;3.20;;;1.83;;
21188;SDS011;39071;52.420;20.896;2023-04-06T10:56:11;2.13;;;1.47;;
21188;SDS011;39071;52.420;20.896;2023-04-06T10:58:43;3.40;;;1.73;;
21188;SDS011;39071;52.420;20.896;2023-04-06T11:01:16;2.90;;;0.90;;
21188;SDS011;39071;52.420;20.896;2023-04-06T11:03:46;2.17;;;1.27;;
21188;SDS011;39071;52.420;20.896;2023-04-06T11:06:19;2.83;;;1.47;;
21188;SDS011;39071;52.420;20.896;2023-04-06T11:08:50;3.07;;;1.77;;
21188;SDS011;39071;52.420;20.896;2023-04-06T11:11:20;3.33;;;1.73;;
21188;SDS011;39071;52.420;20.896;2023-04-06T11:13:48;3.87;;;1.70;;
21188;SDS011;39071;52.420;20.896;2023-04-06T11:16:16;2.03;;;1.30;;
21188;SDS011;39071;52.420;20.896;2023-04-06T11:18:56;1.30;;;1.03;;
21188;SDS011;39071;52.420;20.896;2023-04-06T11:21:36;3.53;;;1.43;;
21188;SDS011;39071;52.420;20.896;2023-04-06T11:24:09;5.33;;;1.33;;
21188;SDS011;39071;52.420;20.896;2023-04-06T11:26:47;1.37;;;1.13;;
21188;SDS011;39071;52.420;20.896;2023-04-06T11:29:27;1.47;;;1.33;;
21188;SDS011;39071;52.420;20.896;2023-04-06T11:31:57;2.53;;;1.87;;
21188;SDS011;39071;52.420;20.896;2023-04-06T11:34:30;3.50;;;1.50;;
21188;SDS011;39071;52.420;20.896;2023-04-06T11:37:01;1.57;;;1.17;;
21188;SDS011;39071;52.420;20.896;2023-04-06T11:39:30;1.60;;;1.23;;
21188;SDS011;39071;52.420;20.896;2023-04-06T11:42:01;5.20;;;1.77;;
21188;SDS011;39071;52.420;20.896;2023-04-06T11:44:34;2.77;;;1.90;;
21188;SDS011;39071;52.420;20.896;2023-04-06T11:47:04;5.03;;;1.73;;
21188;SDS011;39071;52.420;20.896;2023-04-06T11:49:32;2.27;;;1.40;;
21188;SDS011;39071;52.420;20.896;2023-04-06T11:51:59;1.23;;;1.10;;
21188;SDS011;39071;52.420;20.896;2023-04-06T11:54:35;3.80;;;1.70;;
21188;SDS011;39071;52.420;20.896;2023-04-06T11:57:05;2.07;;;1.30;;
21188;SDS011;39071;52.420;20.896;2023-04-06T11:59:33;3.37;;;1.37;;
21188;SDS011;39071;52.420;20.896;2023-04-06T12:02:00;3.17;;;1.57;;
21188;SDS011;39071;52.420;20.896;2023-04-06T12:04:27;2.23;;;1.00;;
21188;SDS011;39071;52.420;20.896;2023-04-06T12:06:53;2.60;;;1.40;;
21188;SDS011;39071;52.420;20.896;2023-04-06T12:09:19;1.73;;;1.10;;
21188;SDS011;39071;52.420;20.896;2023-04-06T12:11:45;4.53;;;1.57;;
21188;SDS011;39071;52.420;20.896;2023-04-06T12:14:12;3.83;;;1.67;;
21188;SDS011;39071;52.420;20.896;2023-04-06T12:16:37;2.90;;;1.33;;
21188;SDS011;39071;52.420;20.896;2023-04-06T12:19:04;6.13;;;1.53;;
21188;SDS011;39071;52.420;20.896;2023-04-06T12:21:30;2.40;;;1.43;;
21188;SDS011;39071;52.420;20.896;2023-04-06T12:23:59;1.83;;;0.87;;
21188;SDS011;39071;52.420;20.896;2023-04-06T12:26:27;3.07;;;1.40;;
21188;SDS011;39071;52.420;20.896;2023-04-06T12:28:54;3.93;;;1.60;;
21188;SDS011;39071;52.420;20.896;2023-04-06T12:31:21;1.53;;;1.17;;
21188;SDS011;39071;52.420;20.896;2023-04-06T12:33:50;3.17;;;1.40;;
21188;SDS011;39071;52.420;20.896;2023-04-06T12:36:20;3.10;;;1.40;;
21188;SDS011;39071;52.420;20.896;2023-04-06T12:38:46;3.20;;;1.77;;
21188;SDS011;39071;52.420;20.896;2023-04-06T12:41:13;4.20;;;1.20;;
21188;SDS011;39071;52.420;20.896;2023-04-06T12:43:40;1.87;;;1.00;;
21188;SDS011;39071;52.420;20.896;2023-04-06T12:46:07;3.03;;;2.37;;
21188;SDS011;39071;52.420;20.896;2023-04-06T12:48:33;4.47;;;1.53;;
21188;SDS011;39071;52.420;20.896;2023-04-06T12:51:01;2.00;;;1.00;;
21188;SDS011;39071;52.420;20.896;2023-04-06T12:53:28;2.87;;;1.20;;
21188;SDS011;39071;52.420;20.896;2023-04-06T12:55:54;3.03;;;1.03;;
21188;SDS011;39071;52.420;20.896;2023-04-06T12:58:21;1.03;;;1.00;;
21188;SDS011;39071;52.420;20.896;2023-04-06T13:00:49;2.90;;;1.30;;
21188;SDS011;39071;52.420;20.896;2023-04-06T13:03:15;2.20;;;1.20;;
21188;SDS011;39071;52.420;20.896;2023-04-06T13:05:49;2.03;;;1.00;;
21188;SDS011;39071;52.420;20.896;2023-04-06T13:08:16;1.40;;;1.00;;
21188;SDS011;39071;52.420;20.896;2023-04-06T13:10:51;0.63;;;0.63;;
21188;SDS011;39071;52.420;20.896;2023-04-06T13:13:23;1.37;;;1.10;;
21188;SDS011;39071;52.420;20.896;2023-04-06T13:15:50;3.23;;;1.97;;
21188;SDS011;39071;52.420;20.896;2023-04-06T13:18:17;2.57;;;1.00;;
21188;SDS011;39071;52.420;20.896;2023-04-06T13:20:42;2.73;;;1.13;;
21188;SDS011;39071;52.420;20.896;2023-04-06T13:23:08;0.97;;;0.80;;
21188;SDS011;39071;52.420;20.896;2023-04-06T13:25:34;4.03;;;0.93;;
21188;SDS011;39071;52.420;20.896;2023-04-06T13:28:00;2.27;;;1.10;;
21188;SDS011;39071;52.420;20.896;2023-04-06T13:30:26;1.67;;;0.80;;
21188;SDS011;39071;52.420;20.896;2023-04-06T13:32:51;1.57;;;0.83;;
21188;SDS011;39071;52.420;20.896;2023-04-06T13:35:17;1.03;;;0.60;;
21188;SDS011;39071;52.420;20.896;2023-04-06T13:37:43;1.57;;;0.90;;
21188;SDS011;39071;52.420;20.896;2023-04-06T13:40:09;4.00;;;1.10;;
21188;SDS011;39071;52.420;20.896;2023-04-06T13:42:36;5.10;;;1.50;;
21188;SDS011;39071;52.420;20.896;2023-04-06T13:45:03;1.87;;;0.77;;
21188;SDS011;39071;52.420;20.896;2023-04-06T13:47:29;2.00;;;0.93;;
21188;SDS011;39071;52.420;20.896;2023-04-06T13:49:55;0.77;;;0.77;;
21188;SDS011;39071;52.420;20.896;2023-04-06T13:52:21;4.87;;;1.07;;
21188;SDS011;39071;52.420;20.896;2023-04-06T13:54:47;3.27;;;0.77;;
21188;SDS011;39071;52.420;20.896;2023-04-06T13:57:16;2.40;;;1.70;;
21188;SDS011;39071;52.420;20.896;2023-04-06T13:59:42;2.90;;;1.23;;
21188;SDS011;39071;52.420;20.896;2023-04-06T14:02:08;3.43;;;1.07;;
21188;SDS011;39071;52.420;20.896;2023-04-06T14:04:35;2.67;;;1.47;;
21188;SDS011;39071;52.420;20.896;2023-04-06T14:07:01;5.40;;;2.10;;
21188;SDS011;39071;52.420;20.896;2023-04-06T14:09:28;3.23;;;1.80;;
21188;SDS011;39071;52.420;20.896;2023-04-06T14:11:55;2.83;;;1.23;;
21188;SDS011;39071;52.420;20.896;2023-04-06T14:14:22;1.67;;;0.70;;
21188;SDS011;39071;52.420;20.896;2023-04-06T14:16:48;2.63;;;1.60;;
21188;SDS011;39071;52.420;20.896;2023-04-06T14:19:17;1.60;;;0.77;;
21188;SDS011;39071;52.420;20.896;2023-04-06T14:21:44;2.30;;;1.17;;
21188;SDS011;39071;52.420;20.896;2023-04-06T14:24:10;1.63;;;0.80;;
21188;SDS011;39071;52.420;20.896;2023-04-06T14:26:37;1.63;;;1.30;;
21188;SDS011;39071;52.420;20.896;2023-04-06T14:29:04;1.97;;;1.00;;
21188;SDS011;39071;52.420;20.896;2023-04-06T14:31:31;2.30;;;1.27;;
21188;SDS011;39071;52.420;20.896;2023-04-06T14:33:57;1.40;;;1.00;;
21188;SDS011;39071;52.420;20.896;2023-04-06T14:36:23;4.87;;;2.10;;
21188;SDS011;39071;52.420;20.896;2023-04-06T14:38:52;2.57;;;0.97;;
21188;SDS011;39071;52.420;20.896;2023-04-06T14:41:18;3.83;;;1.23;;